Time;durP1;ratioP1;P1;durP2;ratioP2;P2;SDS_P1;SDS_P2;PMS_P1;PMS_P2;Temp;Humidity;BMP_temperature;BMP_pressure;BME280_temperature;BME280_humidity;BME280_pressure;Samples;Min_cycle;Max_cycle;Signal;HPM_P1;HPM_P2
2021/10/14 00:01:24;;;;;;;41.70;35.00;;;;;;;5.07;96.50;99566.40;112574;1190;61080;-82
2021/10/14 00:03:51;;;;;;;44.30;35.40;;;;;;;5.02;96.59;99570.11;112634;1183;61013;-81
2021/10/14 00:06:17;;;;;;;46.20;34.90;;;;;;;4.98;96.62;99571.65;112559;1193;65694;-82
2021/10/14 00:08:44;;;;;;;45.40;35.70;;;;;;;4.93;96.70;99571.84;112570;1192;61113;-81
2021/10/14 00:11:11;;;;;;;47.00;38.30;;;;;;;4.87;96.72;99576.45;112497;1192;64819;-81
2021/10/14 00:13:37;;;;;;;49.10;40.00;;;;;;;4.81;96.78;99576.09;112615;1192;61059;-83
2021/10/14 00:16:04;;;;;;;49.60;41.70;;;;;;;4.77;96.82;99572.38;112784;1178;61077;-82
2021/10/14 00:18:31;;;;;;;51.10;41.10;;;;;;;4.70;96.84;99566.63;112559;1193;65971;-82
2021/10/14 00:20:57;;;;;;;47.80;40.90;;;;;;;4.62;96.97;99563.55;112691;1193;61046;-82
2021/10/14 00:23:24;;;;;;;54.30;41.50;;;;;;;4.56;97.07;99564.24;112650;1192;63987;-82
2021/10/14 00:25:51;;;;;;;45.50;37.40;;;;;;;4.50;97.09;99567.11;112536;1192;61046;-84
2021/10/14 00:28:18;;;;;;;51.20;37.90;;;;;;;4.44;97.22;99568.38;112564;1193;60933;-82
2021/10/14 00:30:44;;;;;;;47.90;37.60;;;;;;;4.38;97.25;99569.60;112626;1191;66061;-81
2021/10/14 00:33:11;;;;;;;45.00;36.80;;;;;;;4.32;97.33;99569.44;112536;1184;61096;-81
2021/10/14 00:35:38;;;;;;;41.20;33.90;;;;;;;4.27;97.32;99570.86;112623;1193;63043;-81
2021/10/14 00:38:05;;;;;;;44.30;33.60;;;;;;;4.20;97.48;99568.96;112634;1192;60947;-82
2021/10/14 00:40:33;;;;;;;45.60;31.90;;;;;;;4.13;97.57;99569.71;112600;1192;61043;-81
2021/10/14 00:43:00;;;;;;;41.80;34.80;;;;;;;4.08;97.74;99570.21;112671;1192;66010;-81
2021/10/14 00:45:27;;;;;;;43.60;35.30;;;;;;;4.05;97.85;99567.69;112624;1177;61091;-81
2021/10/14 00:47:55;;;;;;;41.80;32.50;;;;;;;4.03;97.92;99571.45;112591;1193;65010;-81
2021/10/14 00:50:22;;;;;;;43.40;36.50;;;;;;;3.99;97.98;99572.08;112618;1192;61084;-81
2021/10/14 00:52:51;;;;;;;47.90;42.50;;;;;;;3.96;98.11;99573.91;112605;1192;61067;-81
2021/10/14 00:55:20;;;;;;;52.10;44.10;;;;;;;3.94;98.19;99576.10;112660;1193;66973;-81
2021/10/14 00:57:50;;;;;;;47.80;42.40;;;;;;;3.90;98.23;99574.83;112673;1192;61000;-81
2021/10/14 01:00:18;;;;;;;40.80;35.40;;;;;;;3.85;98.16;99574.79;112635;1192;62479;-81
2021/10/14 01:02:44;;;;;;;44.70;39.50;;;;;;;3.82;98.24;99579.27;112611;1191;61057;-82
2021/10/14 01:05:12;;;;;;;50.90;41.10;;;;;;;3.82;98.42;99583.15;112645;1191;61062;-82
2021/10/14 01:07:39;;;;;;;42.60;37.70;;;;;;;3.85;98.61;99582.55;112620;1193;66020;-82
2021/10/14 01:10:07;;;;;;;39.80;33.80;;;;;;;3.86;98.53;99586.01;112653;1192;61001;-82
2021/10/14 01:12:34;;;;;;;44.80;32.60;;;;;;;3.90;98.67;99589.59;112640;1192;64960;-82
2021/10/14 01:15:15;;;;;;;44.40;36.10;;;;;;;3.95;98.85;99592.23;112661;1190;61084;-81
2021/10/14 01:17:41;;;;;;;43.30;34.50;;;;;;;4.03;98.94;99591.84;112683;1190;61004;-82
2021/10/14 01:20:09;;;;;;;38.70;33.10;;;;;;;4.10;98.90;99587.91;112680;1193;74824;-82
2021/10/14 01:22:36;;;;;;;38.20;29.40;;;;;;;4.15;98.82;99586.69;112483;1193;61125;-82
2021/10/14 01:25:03;;;;;;;35.70;29.80;;;;;;;4.18;98.86;99586.60;112618;1190;62735;-82
2021/10/14 01:27:29;;;;;;;36.90;31.00;;;;;;;4.19;98.83;99584.31;112531;1192;61250;-82
2021/10/14 01:29:56;;;;;;;39.20;30.70;;;;;;;4.20;98.88;99587.98;112654;1192;61064;-82
2021/10/14 01:32:22;;;;;;;37.00;29.90;;;;;;;4.20;98.82;99586.55;112659;1192;65749;-82
2021/10/14 01:34:49;;;;;;;39.00;29.60;;;;;;;4.18;98.74;99588.18;112574;1193;61333;-82
2021/10/14 01:37:16;;;;;;;35.00;30.10;;;;;;;4.17;98.77;99591.39;112656;1193;63614;-81
2021/10/14 01:39:42;;;;;;;35.50;31.20;;;;;;;4.17;98.76;99589.29;112670;1191;61087;-81
2021/10/14 01:42:09;;;;;;;36.50;31.60;;;;;;;4.15;98.78;99589.52;112645;1192;61110;-82
2021/10/14 01:44:35;;;;;;;39.00;33.70;;;;;;;4.13;98.79;99587.83;112617;1193;64635;-82
2021/10/14 01:47:03;;;;;;;43.20;35.40;;;;;;;4.14;98.87;99589.91;112605;1193;61026;-82
2021/10/14 01:49:29;;;;;;;43.20;35.70;;;;;;;4.15;98.96;99589.86;112647;1191;62752;-82
2021/10/14 01:51:56;;;;;;;42.60;35.00;;;;;;;4.16;98.97;99591.75;112580;1193;61199;-81
2021/10/14 01:54:24;;;;;;;44.50;38.00;;;;;;;4.19;99.06;99595.21;112699;1191;60974;-82
2021/10/14 01:56:50;;;;;;;44.00;36.50;;;;;;;4.23;99.15;99595.08;112598;1193;65996;-81
2021/10/14 01:59:17;;;;;;;44.80;38.80;;;;;;;4.26;99.17;99595.50;112552;1193;61113;-81
2021/10/14 02:01:44;;;;;;;48.90;40.20;;;;;;;4.29;99.22;99597.02;112571;1191;64961;-82
2021/10/14 02:04:10;;;;;;;47.00;40.60;;;;;;;4.31;99.23;99600.80;112630;1191;61055;-82
2021/10/14 02:06:37;;;;;;;50.30;42.50;;;;;;;4.36;99.30;99601.17;112653;1193;61065;-82
2021/10/14 02:09:03;;;;;;;48.60;41.80;;;;;;;4.38;99.32;99600.91;112617;1191;66037;-82
2021/10/14 02:11:31;;;;;;;47.90;40.50;;;;;;;4.41;99.25;99601.70;112615;1193;61036;-81
2021/10/14 02:13:58;;;;;;;50.10;41.00;;;;;;;4.43;99.22;99600.40;112642;1192;64967;-82
2021/10/14 02:16:25;;;;;;;51.80;44.90;;;;;;;4.45;99.19;99602.83;112559;1190;61062;-82
2021/10/14 02:18:51;;;;;;;53.70;45.50;;;;;;;4.47;99.24;99606.09;112653;1193;61059;-81
2021/10/14 02:21:18;;;;;;;52.30;43.10;;;;;;;4.50;99.32;99608.14;112581;1192;66988;-81
2021/10/14 02:23:45;;;;;;;52.20;43.70;;;;;;;4.53;99.35;99608.91;112601;1193;60955;-81
2021/10/14 02:26:11;;;;;;;51.80;42.00;;;;;;;4.56;99.40;99607.92;112593;1192;64028;-81
2021/10/14 02:28:38;;;;;;;51.60;43.80;;;;;;;4.60;99.50;99611.48;112634;1192;61054;-82
2021/10/14 02:31:05;;;;;;;54.00;47.80;;;;;;;4.62;99.39;99612.63;112624;1193;61059;-82
2021/10/14 02:33:32;;;;;;;53.80;43.40;;;;;;;4.65;99.38;99613.77;112574;1192;67117;-81
2021/10/14 02:35:58;;;;;;;52.20;43.90;;;;;;;4.67;99.41;99615.31;112612;1193;61039;-83
2021/10/14 02:38:25;;;;;;;55.60;45.00;;;;;;;4.69;99.44;99618.75;112608;1193;64177;-83
2021/10/14 02:40:52;;;;;;;47.70;40.10;;;;;;;4.72;99.45;99619.70;112695;1190;61031;-83
2021/10/14 02:43:18;;;;;;;51.00;41.20;;;;;;;4.74;99.36;99615.61;112667;1192;61052;-81
2021/10/14 02:45:45;;;;;;;48.90;39.70;;;;;;;4.76;99.49;99617.83;112617;1192;65665;-83
2021/10/14 02:48:12;;;;;;;51.00;40.60;;;;;;;4.78;99.43;99615.29;112627;1192;60982;-82
2021/10/14 02:50:38;;;;;;;49.10;40.80;;;;;;;4.80;99.39;99609.59;112764;1192;64095;-82
2021/10/14 02:53:05;;;;;;;49.60;39.90;;;;;;;4.83;99.51;99606.14;112603;1192;61036;-86
2021/10/14 02:55:32;;;;;;;50.90;40.70;;;;;;;4.87;99.47;99607.09;112645;1192;61008;-86
2021/10/14 02:57:58;;;;;;;49.70;39.70;;;;;;;4.89;99.44;99607.88;112891;1192;65852;-83
2021/10/14 03:00:25;;;;;;;47.00;38.30;;;;;;;4.92;99.46;99610.76;112628;1193;61058;-83
2021/10/14 03:02:52;;;;;;;46.10;37.40;;;;;;;4.96;99.33;99607.48;112589;1183;64691;-83
2021/10/14 03:05:18;;;;;;;46.20;38.00;;;;;;;4.97;99.31;99605.33;112555;1193;61042;-84
2021/10/14 03:07:45;;;;;;;46.40;35.90;;;;;;;4.97;99.30;99601.61;112611;1192;61039;-82
2021/10/14 03:10:12;;;;;;;46.70;36.40;;;;;;;4.98;99.14;99604.94;112619;1191;66699;-81
2021/10/14 03:12:39;;;;;;;45.90;36.60;;;;;;;4.98;99.12;99607.21;112579;1192;60978;-81
2021/10/14 03:15:07;;;;;;;45.10;36.70;;;;;;;4.99;99.04;99609.30;112572;1192;65044;-81
2021/10/14 03:17:34;;;;;;;46.40;36.80;;;;;;;5.01;99.05;99612.06;112638;1192;61002;-81
2021/10/14 03:20:00;;;;;;;46.40;35.40;;;;;;;5.02;98.96;99613.77;112633;1187;61062;-82
2021/10/14 03:22:27;;;;;;;48.30;34.30;;;;;;;5.01;98.95;99614.70;112617;1193;66071;-83
2021/10/14 03:24:54;;;;;;;48.50;37.30;;;;;;;5.01;98.90;99618.05;112630;1193;60988;-84
2021/10/14 03:27:20;;;;;;;48.60;37.20;;;;;;;5.01;98.83;99621.92;112598;1193;62465;-81
2021/10/14 03:29:47;;;;;;;50.60;38.90;;;;;;;5.01;98.90;99627.53;112629;1192;61007;-82
2021/10/14 03:32:13;;;;;;;54.10;40.70;;;;;;;5.03;98.95;99629.24;112647;1193;61046;-81
2021/10/14 03:34:40;;;;;;;54.40;39.80;;;;;;;5.04;98.89;99630.08;112590;1192;66006;-81
2021/10/14 03:37:07;;;;;;;50.10;38.10;;;;;;;5.06;98.92;99632.67;112700;1192;60979;-81
2021/10/14 03:39:33;;;;;;;50.40;38.40;;;;;;;5.07;98.89;99635.42;112568;1192;64707;-82
2021/10/14 03:42:00;;;;;;;48.20;35.50;;;;;;;5.08;98.87;99635.41;112562;1192;60965;-82
2021/10/14 03:44:26;;;;;;;47.40;36.00;;;;;;;5.08;98.80;99638.75;112579;1183;60986;-82
2021/10/14 03:46:53;;;;;;;48.50;35.20;;;;;;;5.08;98.72;99640.36;112588;1192;65932;-82
2021/10/14 03:49:20;;;;;;;44.70;33.00;;;;;;;5.06;98.73;99644.29;112583;1190;61023;-81
2021/10/14 03:51:46;;;;;;;43.50;31.90;;;;;;;5.03;98.68;99647.20;112636;1183;63696;-82
2021/10/14 03:54:13;;;;;;;45.50;32.80;;;;;;;4.98;98.52;99648.95;112589;1192;60975;-82
2021/10/14 03:56:39;;;;;;;44.70;30.80;;;;;;;4.94;98.51;99652.60;112663;1193;61046;-82
2021/10/14 03:59:06;;;;;;;47.00;34.20;;;;;;;4.92;98.45;99651.45;112588;1192;65889;-82
2021/10/14 04:01:33;;;;;;;48.00;34.00;;;;;;;4.90;98.47;99651.16;112612;1193;61058;-81
2021/10/14 04:04:00;;;;;;;48.50;35.70;;;;;;;4.90;98.46;99652.23;112634;1192;62641;-82
2021/10/14 04:06:26;;;;;;;53.40;37.50;;;;;;;4.89;98.46;99654.52;112616;1190;60978;-81
2021/10/14 04:08:53;;;;;;;46.30;33.60;;;;;;;4.88;98.47;99656.00;112592;1191;60978;-82
2021/10/14 04:11:19;;;;;;;48.90;34.80;;;;;;;4.87;98.47;99651.27;112637;1192;66118;-82
2021/10/14 04:13:46;;;;;;;50.00;33.20;;;;;;;4.83;98.34;99650.88;112605;1193;61004;-82
2021/10/14 04:16:13;;;;;;;48.50;34.30;;;;;;;4.80;98.40;99652.21;112641;1192;63942;-82
2021/10/14 04:18:39;;;;;;;49.00;32.40;;;;;;;4.78;98.48;99656.66;112689;1190;61078;-81
2021/10/14 04:21:06;;;;;;;49.20;35.50;;;;;;;4.74;98.48;99657.14;112579;1190;61023;-82
2021/10/14 04:23:32;;;;;;;51.20;33.00;;;;;;;4.71;98.52;99657.61;112582;1191;65591;-82
2021/10/14 04:25:59;;;;;;;49.20;35.10;;;;;;;4.66;98.51;99658.63;112621;1176;61145;-82
2021/10/14 04:28:26;;;;;;;53.50;35.50;;;;;;;4.62;98.52;99662.78;112590;1192;63882;-82
2021/10/14 04:30:52;;;;;;;49.00;32.70;;;;;;;4.56;98.59;99665.80;112584;1192;61011;-81
2021/10/14 04:33:19;;;;;;;51.70;35.90;;;;;;;4.51;98.63;99670.90;112675;1192;60908;-82
2021/10/14 04:35:46;;;;;;;47.50;33.30;;;;;;;4.46;98.67;99675.09;112623;1192;65990;-81
2021/10/14 04:38:16;;;;;;;55.30;37.60;;;;;;;4.45;98.79;99676.38;112654;1193;61042;-81
2021/10/14 04:40:43;;;;;;;;;;;;;;;4.44;98.89;99678.70;112659;1192;62959;-81
2021/10/14 04:43:09;;;;;;;54.60;36.90;;;;;;;4.43;99.00;99682.23;112645;1193;61007;-81
2021/10/14 04:45:36;;;;;;;58.20;38.50;;;;;;;4.42;98.99;99683.14;112576;1192;61038;-82
2021/10/14 04:48:03;;;;;;;59.70;43.30;;;;;;;4.42;99.09;99685.95;112609;1192;66991;-82
2021/10/14 04:50:30;;;;;;;55.60;38.40;;;;;;;4.44;99.12;99688.02;112617;1192;69579;-82
2021/10/14 04:52:56;;;;;;;58.00;38.90;;;;;;;4.46;99.18;99687.41;112611;1191;62613;-81
2021/10/14 04:55:23;;;;;;;56.80;36.20;;;;;;;4.48;99.04;99688.44;112575;1191;61076;-82
2021/10/14 04:57:50;;;;;;;55.30;36.70;;;;;;;4.47;98.96;99690.02;112614;1177;60976;-82
2021/10/14 05:00:16;;;;;;;48.60;31.80;;;;;;;4.48;98.96;99687.89;112637;1193;66917;-82
2021/10/14 05:02:43;;;;;;;57.90;36.70;;;;;;;4.49;98.91;99688.22;112650;1191;60925;-81
2021/10/14 05:05:09;;;;;;;52.90;35.10;;;;;;;4.50;99.01;99692.40;112520;1192;63841;-82
2021/10/14 05:07:36;;;;;;;50.50;34.80;;;;;;;4.50;99.01;99691.88;112629;1192;61480;-82
2021/10/14 05:10:03;;;;;;;54.40;34.30;;;;;;;4.49;98.93;99692.61;112622;1193;60943;-82
2021/10/14 05:12:30;;;;;;;51.80;33.70;;;;;;;4.46;98.89;99691.48;112547;1192;66905;-82
2021/10/14 05:14:57;;;;;;;55.40;35.70;;;;;;;4.45;98.88;99696.43;112654;1192;60969;-82
2021/10/14 05:17:23;;;;;;;56.50;35.90;;;;;;;4.45;98.94;99698.17;112522;1193;65014;-82
2021/10/14 05:19:50;;;;;;;58.00;36.50;;;;;;;4.47;98.87;99700.94;112604;1191;60958;-82
2021/10/14 05:22:16;;;;;;;53.30;35.20;;;;;;;4.48;98.91;99703.20;112605;1192;61032;-82
2021/10/14 05:24:43;;;;;;;61.50;37.30;;;;;;;4.50;98.89;99705.61;112557;1192;66019;-82
2021/10/14 05:27:10;;;;;;;55.20;36.30;;;;;;;4.51;98.78;99707.70;112630;1193;60992;-84
2021/10/14 05:29:36;;;;;;;54.70;36.00;;;;;;;4.52;98.73;99706.77;112719;1193;64670;-82
2021/10/14 05:32:03;;;;;;;54.40;34.70;;;;;;;4.54;98.75;99708.48;112622;1192;61036;-83
2021/10/14 05:34:29;;;;;;;54.70;36.50;;;;;;;4.55;98.73;99708.42;112839;1193;60988;-82
2021/10/14 05:36:56;;;;;;;49.60;35.20;;;;;;;4.60;98.67;99713.38;112694;1191;65819;-82
2021/10/14 05:39:23;;;;;;;51.90;33.50;;;;;;;4.63;98.57;99709.59;112577;1191;60982;-83
2021/10/14 05:41:49;;;;;;;43.80;31.40;;;;;;;4.66;98.47;99712.30;112596;1192;63668;-83
2021/10/14 05:44:16;;;;;;;46.10;31.70;;;;;;;4.69;98.36;99710.29;112649;1190;61036;-83
2021/10/14 05:46:43;;;;;;;46.20;30.60;;;;;;;4.72;98.42;99712.81;112679;1193;61029;-81
2021/10/14 05:49:09;;;;;;;49.00;32.40;;;;;;;4.76;98.29;99714.46;112667;1193;66981;-81
2021/10/14 05:51:37;;;;;;;45.70;32.90;;;;;;;4.79;98.17;99714.54;112637;1193;61046;-81
2021/10/14 05:54:04;;;;;;;49.90;31.70;;;;;;;4.82;98.14;99717.79;112612;1193;62780;-81
2021/10/14 05:56:30;;;;;;;43.70;32.40;;;;;;;4.87;98.14;99717.29;112548;1192;61039;-81
2021/10/14 05:58:57;;;;;;;44.70;30.70;;;;;;;4.94;98.09;99720.77;112567;1190;60985;-83
2021/10/14 06:01:24;;;;;;;51.60;33.30;;;;;;;5.00;98.06;99718.11;112528;1191;66024;-82
2021/10/14 06:03:50;;;;;;;49.90;36.30;;;;;;;5.07;98.04;99720.52;112674;1191;61065;-81
2021/10/14 06:06:17;;;;;;;55.20;37.90;;;;;;;5.13;97.92;99724.55;112645;1193;63746;-81
2021/10/14 06:08:44;;;;;;;49.10;35.30;;;;;;;5.19;97.82;99729.45;112552;1193;60981;-82
2021/10/14 06:11:13;;;;;;;47.10;33.50;;;;;;;5.26;97.77;99732.58;112612;1192;61059;-81
2021/10/14 06:13:39;;;;;;;50.60;35.20;;;;;;;5.33;97.68;99736.39;112694;1192;66959;-84
2021/10/14 06:16:06;;;;;;;52.10;37.00;;;;;;;5.38;97.37;99736.77;112651;1192;61033;-82
2021/10/14 06:18:34;;;;;;;51.50;35.80;;;;;;;5.42;97.30;99735.89;112661;1192;62645;-82
2021/10/14 06:21:02;;;;;;;45.00;32.90;;;;;;;5.49;97.20;99735.48;112658;1193;61046;-81
2021/10/14 06:23:29;;;;;;;48.20;34.30;;;;;;;5.56;96.99;99732.45;112725;1183;61029;-81
2021/10/14 06:25:55;;;;;;;42.80;32.90;;;;;;;5.63;96.93;99729.54;112678;1193;66008;-81
2021/10/14 06:28:22;;;;;;;49.40;34.50;;;;;;;5.72;96.82;99720.42;112603;1193;61055;-83
2021/10/14 06:30:49;;;;;;;48.50;34.50;;;;;;;5.83;96.65;99719.49;112619;1193;64097;-81
2021/10/14 06:33:16;;;;;;;46.40;35.00;;;;;;;5.92;96.45;99715.11;112592;1192;61054;-82
2021/10/14 06:35:42;;;;;;;47.00;35.20;;;;;;;6.01;96.31;99711.48;112568;1190;61414;-83
2021/10/14 06:38:09;;;;;;;45.60;32.70;;;;;;;6.11;96.11;99713.91;112590;1192;66199;-82
2021/10/14 06:40:36;;;;;;;39.30;30.40;;;;;;;6.24;95.86;99709.58;112543;1192;61334;-82
2021/10/14 06:43:02;;;;;;;42.80;30.20;;;;;;;6.39;95.68;99707.94;112647;1190;64171;-82
2021/10/14 06:45:29;;;;;;;36.20;27.60;;;;;;;6.52;95.63;99707.44;112742;1192;61497;-82
2021/10/14 06:47:56;;;;;;;32.60;25.60;;;;;;;6.57;95.25;99705.96;112684;1190;61065;-79
2021/10/14 06:50:22;;;;;;;34.80;25.50;;;;;;;6.55;95.02;99706.75;112614;1191;66675;-85
2021/10/14 06:52:49;;;;;;;35.30;27.20;;;;;;;6.58;95.10;99705.23;112624;1192;61018;-84
2021/10/14 06:55:16;;;;;;;34.50;26.50;;;;;;;6.64;94.99;99705.54;112579;1193;62320;-84
2021/10/14 06:57:43;;;;;;;32.30;26.00;;;;;;;6.69;94.92;99701.47;112681;1191;61002;-85
2021/10/14 07:00:10;;;;;;;37.20;29.20;;;;;;;6.76;94.93;99704.02;112684;1191;60969;-82
2021/10/14 07:02:36;;;;;;;36.70;27.40;;;;;;;6.86;94.95;99698.83;112625;1191;64964;-84
2021/10/14 07:05:04;;;;;;;41.40;29.30;;;;;;;6.93;94.67;99701.35;112601;1193;61732;-84
2021/10/14 07:07:31;;;;;;;36.90;28.40;;;;;;;6.97;94.46;99699.27;112609;1192;62657;-84
2021/10/14 07:09:57;;;;;;;39.40;27.30;;;;;;;7.02;94.24;99698.71;112725;1192;60979;-85
2021/10/14 07:12:28;;;;;;;34.00;26.50;;;;;;;7.12;94.18;99702.02;112686;1192;60937;-83
2021/10/14 07:14:56;;;;;;;35.40;25.20;;;;;;;7.21;93.97;99703.92;112620;1192;66948;-83
2021/10/14 07:17:22;;;;;;;35.20;24.40;;;;;;;7.34;93.65;99703.55;112627;1192;61634;-84
2021/10/14 07:19:49;;;;;;;34.90;24.90;;;;;;;7.47;93.34;99702.48;112631;1193;63998;-84
2021/10/14 07:22:16;;;;;;;29.10;22.70;;;;;;;7.58;93.29;99691.02;112651;1192;61125;-84
2021/10/14 07:24:42;;;;;;;28.70;22.70;;;;;;;7.69;92.96;99688.98;112647;1177;61061;-84
2021/10/14 07:27:09;;;;;;;29.20;21.40;;;;;;;7.77;92.69;99689.17;112685;1193;64502;-84
2021/10/14 07:29:36;;;;;;;25.50;20.00;;;;;;;7.85;92.45;99689.33;112670;1193;61132;-85
2021/10/14 07:32:06;;;;;;;25.90;20.20;;;;;;;7.93;92.18;99686.28;112561;1192;64243;-84
2021/10/14 07:34:37;;;;;;;22.60;19.10;;;;;;;8.02;91.91;99686.98;112654;1192;61205;-84
2021/10/14 07:37:05;;;;;;;23.90;19.00;;;;;;;8.07;91.39;99690.48;112732;1192;61049;-84
2021/10/14 07:39:33;;;;;;;21.80;18.90;;;;;;;8.10;91.17;99685.90;112672;1192;64670;-84
2021/10/14 07:42:00;;;;;;;22.10;18.40;;;;;;;8.17;90.97;99682.02;112650;1193;60931;-84
2021/10/14 07:44:27;;;;;;;23.40;19.10;;;;;;;8.28;91.03;99682.06;112684;1193;63679;-84
2021/10/14 07:46:54;;;;;;;25.30;21.40;;;;;;;8.39;90.93;99677.14;112660;1192;61151;-85
2021/10/14 07:49:21;;;;;;;24.20;21.30;;;;;;;8.49;90.78;99674.54;112558;1192;61088;-84
2021/10/14 07:51:47;;;;;;;23.70;20.60;;;;;;;8.59;90.68;99673.37;112671;1193;65647;-85
2021/10/14 07:54:14;;;;;;;27.90;21.90;;;;;;;8.66;90.25;99669.12;112693;1193;61023;-84
2021/10/14 07:56:42;;;;;;;22.70;19.60;;;;;;;8.71;89.97;99674.05;112657;1192;62628;-85
2021/10/14 07:59:08;;;;;;;23.20;19.80;;;;;;;8.71;89.38;99678.64;112715;1177;61062;-84
2021/10/14 08:01:35;;;;;;;24.40;20.70;;;;;;;8.70;89.22;99682.58;112884;1192;61074;-84
2021/10/14 08:04:03;;;;;;;23.20;19.90;;;;;;;8.72;89.28;99686.38;113259;1192;65993;-84
2021/10/14 08:06:29;;;;;;;26.10;21.60;;;;;;;8.76;89.23;99688.83;113550;1192;61145;-84
2021/10/14 08:08:56;;;;;;;25.70;20.80;;;;;;;8.82;88.98;99687.67;112746;1192;64022;-86
2021/10/14 08:11:23;;;;;;;25.40;19.60;;;;;;;8.87;88.80;99687.23;113479;1192;61020;-85
2021/10/14 08:13:50;;;;;;;25.90;20.40;;;;;;;8.92;88.42;99685.77;112876;1188;60998;-85
2021/10/14 08:16:16;;;;;;;24.80;21.10;;;;;;;8.94;88.38;99686.58;112629;1193;64923;-86
2021/10/14 08:18:43;;;;;;;23.80;20.10;;;;;;;8.96;88.35;99690.02;112660;1193;61046;-86
2021/10/14 08:21:10;;;;;;;24.10;20.80;;;;;;;9.00;88.17;99688.41;112685;1192;62456;-84
2021/10/14 08:23:36;;;;;;;22.50;18.20;;;;;;;9.07;88.05;99692.30;112624;1192;61033;-84
2021/10/14 08:26:03;;;;;;;22.50;18.90;;;;;;;9.12;87.92;99694.35;112706;1190;61058;-84
2021/10/14 08:28:30;;;;;;;22.60;16.90;;;;;;;9.18;87.82;99693.20;112645;1193;65974;-84
2021/10/14 08:30:56;;;;;;;17.70;14.40;;;;;;;9.22;87.38;99695.80;112687;1193;61132;-84
2021/10/14 08:33:23;;;;;;;14.90;12.30;;;;;;;9.24;86.96;99694.83;112590;1193;62974;-84
2021/10/14 08:35:50;;;;;;;11.90;10.70;;;;;;;9.26;86.84;99686.39;112662;1193;61430;-84
2021/10/14 08:38:17;;;;;;;16.00;12.30;;;;;;;9.28;86.06;99681.86;112729;1192;61195;-84
2021/10/14 08:40:43;;;;;;;15.90;11.90;;;;;;;9.27;85.97;99683.30;112656;1192;66981;-82
2021/10/14 08:43:14;;;;;;;15.30;11.70;;;;;;;9.37;86.58;99682.13;112647;1193;61036;-84
2021/10/14 08:45:43;;;;;;;13.30;11.30;;;;;;;9.54;86.77;99683.71;112722;1193;64036;-84
2021/10/14 08:48:10;;;;;;;13.10;9.30;;;;;;;9.57;85.52;99679.48;112661;1191;61136;-85
2021/10/14 08:50:41;;;;;;;14.20;10.90;;;;;;;9.55;85.11;99678.37;112658;1190;61061;-83
2021/10/14 08:53:08;;;;;;;16.80;12.30;;;;;;;9.60;85.29;99674.53;112663;1183;65843;-83
2021/10/14 08:55:38;;;;;;;12.80;9.80;;;;;;;9.76;85.61;99673.72;112761;1193;61046;-85
2021/10/14 08:58:07;;;;;;;14.30;11.10;;;;;;;9.94;85.38;99672.92;112644;1192;63984;-83
2021/10/14 09:00:40;;;;;;;11.80;10.10;;;;;;;10.08;85.20;99668.95;112752;1190;61573;-84
2021/10/14 09:03:26;;;;;;;13.60;9.80;;;;;;;10.25;84.96;99666.27;112741;1190;61036;-84
2021/10/14 09:05:53;;;;;;;13.00;10.10;;;;;;;10.47;84.18;99670.59;112655;1193;65702;-84
2021/10/14 09:08:43;;;;;;;15.80;10.80;;;;;;;10.72;84.12;99668.33;112658;1192;61062;-86
2021/10/14 09:11:16;;;;;;;11.80;9.60;;;;;;;11.00;82.77;99668.15;112628;1193;64985;-84
2021/10/14 09:13:46;;;;;;;12.40;9.60;;;;;;;11.01;81.45;99671.24;112576;1192;61029;-84
2021/10/14 09:16:25;;;;;;;13.30;10.40;;;;;;;11.10;82.15;99670.77;112694;1192;61004;-85
2021/10/14 09:18:52;;;;;;;43.70;14.20;;;;;;;11.36;82.09;99668.67;112657;1193;67258;-84
2021/10/14 09:21:23;;;;;;;14.40;9.90;;;;;;;11.58;80.87;99664.86;112641;1192;61062;-84
2021/10/14 09:23:51;;;;;;;12.40;9.70;;;;;;;11.66;80.37;99664.20;112625;1192;65297;-84
2021/10/14 09:26:38;;;;;;;11.00;8.70;;;;;;;11.69;79.68;99663.84;112718;1190;61046;-84
2021/10/14 09:29:08;;;;;;;8.20;7.20;;;;;;;11.71;78.83;99661.94;112657;1190;61060;-85
2021/10/14 09:31:50;;;;;;;10.10;7.40;;;;;;;11.67;77.29;99661.45;112689;1193;67000;-85
2021/10/14 09:34:50;;;;;;;12.40;7.80;;;;;;;11.58;77.19;99662.02;112685;1191;61046;-84
2021/10/14 09:37:16;;;;;;;14.70;7.50;;;;;;;11.60;77.38;99663.69;112616;1193;63707;-84
2021/10/14 09:39:58;;;;;;;10.20;8.30;;;;;;;11.61;76.78;99662.38;112681;1193;61046;-85
2021/10/14 09:42:42;;;;;;;8.50;7.50;;;;;;;11.58;76.71;99663.46;112633;1193;61036;-85
2021/10/14 09:45:20;;;;;;;8.00;7.20;;;;;;;11.58;77.10;99667.01;112450;1192;64759;-85
2021/10/14 09:48:11;;;;;;;10.50;7.60;;;;;;;11.63;77.38;99665.27;112631;1191;60979;-84
2021/10/14 09:50:41;;;;;;;8.50;7.50;;;;;;;11.69;77.16;99662.41;112653;1192;64133;-85
2021/10/14 09:53:27;;;;;;;10.40;8.10;;;;;;;11.78;77.05;99662.05;112702;1190;61079;-84
2021/10/14 09:55:55;;;;;;;12.40;8.20;;;;;;;11.90;77.00;99659.05;112655;1191;61049;-85
2021/10/14 09:58:24;;;;;;;9.90;8.60;;;;;;;11.99;76.73;99661.88;112725;1192;66015;-84
2021/10/14 10:00:52;;;;;;;8.50;7.60;;;;;;;12.03;76.61;99663.40;112797;1191;61059;-84
2021/10/14 10:03:23;;;;;;;8.10;7.30;;;;;;;12.02;76.11;99664.72;112664;1192;62641;-84
2021/10/14 10:05:51;;;;;;;10.70;8.60;;;;;;;11.97;76.16;99663.78;112727;1193;61064;-84
2021/10/14 10:08:31;;;;;;;11.10;8.20;;;;;;;11.98;76.01;99664.98;112650;1191;61033;-84
2021/10/14 10:11:03;;;;;;;9.40;8.00;;;;;;;11.94;75.47;99663.23;112686;1192;65875;-84
2021/10/14 10:13:33;;;;;;;9.00;7.70;;;;;;;11.94;75.52;99663.27;112721;1192;61129;-84
2021/10/14 10:16:13;;;;;;;11.40;8.60;;;;;;;11.92;75.06;99667.87;112690;1192;63662;-84
2021/10/14 10:18:41;;;;;;;8.30;7.50;;;;;;;11.92;74.90;99662.33;112657;1192;61043;-84
2021/10/14 10:21:29;;;;;;;10.10;7.20;;;;;;;12.02;75.00;99656.36;112740;1193;61019;-84
2021/10/14 10:24:00;;;;;;;7.90;7.00;;;;;;;12.17;74.85;99650.27;112653;1193;66013;-84
2021/10/14 10:26:35;;;;;;;8.60;7.10;;;;;;;12.32;74.36;99648.92;112650;1193;60989;-83
2021/10/14 10:29:11;;;;;;;8.10;6.30;;;;;;;12.48;73.70;99645.02;112728;1192;65056;-84
2021/10/14 10:34:39;;;;;;;7.70;6.90;;;;;;;12.59;73.08;99634.19;112718;1176;61074;-84
2021/10/14 10:37:11;;;;;;;6.90;6.10;;;;;;;12.64;72.47;99628.48;112635;1193;67223;-86
2021/10/14 10:39:53;;;;;;;8.50;7.40;;;;;;;12.87;72.76;99629.47;113079;1193;60967;-84
2021/10/14 10:42:52;;;;;;;7.80;7.00;;;;;;;13.06;71.74;99627.89;112714;1193;62760;-84
2021/10/14 10:45:23;;;;;;;7.70;6.90;;;;;;;13.05;71.63;99622.08;112644;1193;61029;-85
2021/10/14 10:47:52;;;;;;;7.90;6.70;;;;;;;13.17;71.85;99612.87;113583;1190;61064;-89
2021/10/14 10:50:29;;;;;;;8.40;7.30;;;;;;;13.26;71.83;99608.85;113925;1190;66109;-89
2021/10/14 10:53:14;;;;;;;8.10;7.10;;;;;;;13.31;71.29;99608.03;112695;1191;60975;-91
2021/10/14 10:56:25;;;;;;;10.10;7.10;;;;;;;13.23;70.49;99604.80;112655;1192;64044;-89
2021/10/14 10:58:52;;;;;;;8.10;6.90;;;;;;;13.09;69.58;99603.77;112973;1192;61068;-89
2021/10/14 11:01:19;;;;;;;6.30;5.70;;;;;;;12.81;67.90;99602.77;112658;1193;60979;-89
2021/10/14 11:04:01;;;;;;;7.60;6.80;;;;;;;12.55;68.76;99603.61;112653;1193;66033;-90
2021/10/14 11:06:31;;;;;;;9.00;7.90;;;;;;;12.42;69.62;99596.60;112863;1183;61008;-92
2021/10/14 11:09:05;;;;;;;;;;;;;;;12.43;69.84;99595.65;113034;1193;62334;-91
2021/10/14 11:11:34;;;;;;;9.10;6.80;;;;;;;12.43;69.89;99592.42;112710;1191;61126;-91
2021/10/14 11:14:02;;;;;;;7.60;6.70;;;;;;;12.45;69.57;99589.66;112685;1193;61138;-86
2021/10/14 11:16:30;;;;;;;8.00;7.20;;;;;;;12.54;69.24;99589.96;112735;1192;64629;-91
2021/10/14 11:18:58;;;;;;;8.50;7.60;;;;;;;12.74;69.38;99586.85;112672;1191;61039;-90
2021/10/14 11:21:26;;;;;;;9.00;7.50;;;;;;;12.96;69.29;99577.55;112760;1191;62416;-89
2021/10/14 11:23:59;;;;;;;7.70;6.70;;;;;;;13.19;69.39;99574.23;112630;1191;61007;-91
2021/10/14 11:26:35;;;;;;;8.10;6.90;;;;;;;13.27;68.61;99569.04;112736;1192;61048;-89
2021/10/14 11:29:27;;;;;;;6.50;5.90;;;;;;;13.23;68.38;99565.36;112789;1193;64491;-90